createdAt,value
2022-08-03T00:00:29.471Z,99319.06
2022-08-03T00:02:56.541Z,99327.09
2022-08-03T00:05:23.338Z,99324.28
2022-08-03T00:07:50.126Z,99329.91
2022-08-03T00:10:17.387Z,99324.28
2022-08-03T00:12:44.270Z,99325.38
2022-08-03T00:15:16.593Z,99325.38
2022-08-03T00:17:52.597Z,99319.56
2022-08-03T00:20:20.132Z,99320.09
2022-08-03T00:22:46.949Z,99326.03
2022-08-03T00:25:13.963Z,99336.06
2022-08-03T00:27:40.717Z,99335.06
2022-08-03T00:30:08.415Z,99328.16
2022-08-03T00:32:35.106Z,99326.19
2022-08-03T00:35:07.869Z,99325.47
2022-08-03T00:37:41.356Z,99326.88
2022-08-03T00:40:13.713Z,99334.94
2022-08-03T00:42:54.734Z,99328.84
2022-08-03T00:45:25.449Z,99326.88
2022-08-03T00:47:52.693Z,99325.78
2022-08-03T00:50:23.022Z,99317.59
2022-08-03T00:52:52.635Z,99325.53
2022-08-03T00:55:19.865Z,99336.13
2022-08-03T00:57:46.965Z,99330.63
2022-08-03T01:00:16.694Z,99332.34
2022-08-03T01:02:43.876Z,99327.81
2022-08-03T01:05:11.056Z,99330.38
2022-08-03T01:07:49.941Z,99332.03
2022-08-03T01:10:22.717Z,99332.91
2022-08-03T01:13:02.646Z,99329.22
2022-08-03T01:15:58.774Z,99323.16
2022-08-03T01:18:59.808Z,99326.84
2022-08-03T01:21:34.055Z,99324.28
2022-08-03T01:24:22.289Z,99323.16
2022-08-03T01:26:54.306Z,99326.09
2022-08-03T01:29:55.129Z,99324.41
2022-08-03T01:32:58.153Z,99326.38
2022-08-03T01:35:26.119Z,99313.22
2022-08-03T01:38:04.790Z,99313.94
2022-08-03T01:40:34.519Z,99318.31
2022-08-03T01:43:04.632Z,99316.91
2022-08-03T01:45:34.232Z,99324.56
2022-08-03T01:48:02.665Z,99319.19
2022-08-03T01:50:31.972Z,99320.03
2022-08-03T01:52:59.640Z,99327.22
2022-08-03T01:55:30.012Z,99327.09
2022-08-03T01:58:05.800Z,99324.41
2022-08-03T02:00:36.931Z,99325.25
2022-08-03T02:03:06.309Z,99325.38
2022-08-03T02:05:34.163Z,99324.94
2022-08-03T02:08:03.585Z,99331.72
2022-08-03T02:10:34.884Z,99329.78
2022-08-03T02:13:05.182Z,99325.53
2022-08-03T02:15:33.864Z,99322.72
2022-08-03T02:18:03.258Z,99326.22
2022-08-03T02:20:33.261Z,99338.81
2022-08-03T02:23:00.398Z,99332.47
2022-08-03T02:25:28.374Z,99328.06
2022-08-03T02:27:57.986Z,99328.06
2022-08-03T02:30:38.553Z,99333.19
2022-08-03T02:33:10.950Z,99331.47
2022-08-03T02:35:40.077Z,99335.16
2022-08-03T02:38:10.272Z,99333.19
2022-08-03T02:40:38.688Z,99335.72
2022-08-03T02:43:12.486Z,99335.59
2022-08-03T02:45:45.916Z,99337.28
2022-08-03T02:48:23.233Z,99334.59
2022-08-03T02:50:53.068Z,99330.22
2022-08-03T02:53:21.634Z,99337.88
2022-08-03T02:55:50.153Z,99336.75
2022-08-03T02:58:21.275Z,99330.53
2022-08-03T03:00:49.669Z,99335.78
2022-08-03T03:03:16.585Z,99327.47
2022-08-03T03:05:54.518Z,99337.81
2022-08-03T03:08:28.654Z,99339.47
2022-08-03T03:10:59.451Z,99349.13
2022-08-03T03:13:28.857Z,99344.31
2022-08-03T03:15:57.772Z,99341.63
2022-08-03T03:18:27.515Z,99336.97
2022-08-03T03:20:55.810Z,99348.31
2022-08-03T03:23:24.983Z,99333.63
2022-08-03T03:25:53.312Z,99340.44
2022-08-03T03:28:20.896Z,99342.72
2022-08-03T03:30:52.726Z,99350.50
2022-08-03T03:33:21.689Z,99351.94
2022-08-03T03:35:48.858Z,99350.53
2022-08-03T03:38:15.937Z,99355.78
2022-08-03T03:40:43.152Z,99354.50
2022-08-03T03:43:13.366Z,99358.63
2022-08-03T03:45:43.596Z,99360.94
2022-08-03T03:48:10.918Z,99367.59
2022-08-03T03:50:41.075Z,99365.34
2022-08-03T03:53:14.343Z,99372.03
2022-08-03T03:55:59.111Z,99364.38
2022-08-03T03:58:29.361Z,99365.09
2022-08-03T04:00:56.298Z,99367.53
2022-08-03T04:03:23.037Z,99365.72
2022-08-03T04:06:08.994Z,99365.59
2022-08-03T04:08:54.575Z,99370.97
2022-08-03T04:11:38.664Z,99372.81
2022-08-03T04:14:10.096Z,99368.31
2022-08-03T04:16:43.690Z,99376.66
2022-08-03T04:19:19.664Z,99373.81
2022-08-03T04:21:53.035Z,99364.91
2022-08-03T04:24:26.602Z,99374.38
2022-08-03T04:26:56.230Z,99370.50
2022-08-03T04:29:26.064Z,99366.25
2022-08-03T04:31:55.784Z,99372.59
2022-08-03T04:34:22.747Z,99370.03
2022-08-03T04:36:55.178Z,99376.69
2022-08-03T04:39:26.715Z,99383.19
2022-08-03T04:42:02.184Z,99387.47
2022-08-03T04:44:38.786Z,99397.69
2022-08-03T04:47:05.784Z,99391.31
2022-08-03T04:49:32.924Z,99392.44
2022-08-03T04:51:59.972Z,99394.56
2022-08-03T04:54:26.978Z,99396.09
2022-08-03T04:56:53.763Z,99391.44
2022-08-03T04:59:20.482Z,99400.25
2022-08-03T05:01:47.423Z,99399.25
2022-08-03T05:04:14.672Z,99391.28
2022-08-03T05:06:48.149Z,99407.75
2022-08-03T05:09:46.078Z,99388.88
2022-08-03T05:12:06.082Z,99399.78
2022-08-03T05:14:33.910Z,99400.28
2022-08-03T05:17:00.680Z,99401.44
2022-08-03T05:19:27.487Z,99399.59
2022-08-03T05:21:54.341Z,99393.22
2022-08-03T05:24:21.039Z,99393.94
2022-08-03T05:26:47.892Z,99401.34
2022-08-03T05:29:14.615Z,99400.53
2022-08-03T05:31:41.556Z,99405.63
2022-08-03T05:34:08.472Z,99407.47
2022-08-03T05:36:35.232Z,99399.53
2022-08-03T05:39:02.940Z,99404.72
2022-08-03T05:41:36.791Z,99405.72
2022-08-03T05:44:04.495Z,99403.41
2022-08-03T05:46:31.420Z,99404.31
2022-08-03T05:48:58.347Z,99398.38
2022-08-03T05:51:25.153Z,99395.75
2022-08-03T05:53:52.345Z,99398.53
2022-08-03T05:56:23.799Z,99403.59
2022-08-03T05:58:52.178Z,99401.38
2022-08-03T06:01:21.892Z,99403.16
2022-08-03T06:03:49.880Z,99403.84
2022-08-03T06:06:17.194Z,99402.81
2022-08-03T06:08:45.073Z,99393.47
2022-08-03T06:11:12.962Z,99403.03
2022-08-03T06:13:40.271Z,99408.72
2022-08-03T06:16:07.157Z,99404.91
2022-08-03T06:18:34.647Z,99404.50
2022-08-03T06:21:14.787Z,99404.41
2022-08-03T06:23:54.810Z,99407.09
2022-08-03T06:26:27.006Z,99402.75
2022-08-03T06:28:55.139Z,99407.41
2022-08-03T06:31:25.975Z,99401.06
2022-08-03T06:34:32.434Z,99400.16
2022-08-03T06:36:48.497Z,99405.22
2022-08-03T06:39:15.284Z,99414.13
2022-08-03T06:41:44.912Z,99413.78
2022-08-03T06:44:12.371Z,99415.81
2022-08-03T06:46:39.358Z,99420.16
2022-08-03T06:49:07.480Z,99412.97
2022-08-03T06:52:06.174Z,99412.41
2022-08-03T06:54:22.303Z,99424.69
2022-08-03T06:56:49.322Z,99423.66
2022-08-03T07:00:07.553Z,99421.41
2022-08-03T07:02:03.863Z,99419.53
2022-08-03T07:04:30.715Z,99416.66
2022-08-03T07:06:58.558Z,99420.34
2022-08-03T07:09:26.914Z,99425.88
2022-08-03T07:11:54.563Z,99427.06
2022-08-03T07:14:21.797Z,99424.00
2022-08-03T07:16:49.734Z,99424.91
2022-08-03T07:19:16.853Z,99424.53
2022-08-03T07:21:43.712Z,99422.84
2022-08-03T07:24:10.478Z,99436.06
2022-08-03T07:26:37.197Z,99435.19
2022-08-03T07:29:04.050Z,99429.41
2022-08-03T07:31:42.242Z,99421.19
2022-08-03T07:34:09.240Z,99422.31
2022-08-03T07:36:36.056Z,99412.72
2022-08-03T07:39:17.747Z,99414.50
2022-08-03T07:41:45.495Z,99413.16
2022-08-03T07:44:21.810Z,99420.03
2022-08-03T07:46:48.619Z,99417.13
2022-08-03T07:49:15.363Z,99414.25
2022-08-03T07:51:42.321Z,99419.16
2022-08-03T07:54:10.238Z,99414.66
2022-08-03T07:56:37.566Z,99413.63
2022-08-03T07:59:04.404Z,99409.31
2022-08-03T08:01:35.940Z,99409.06
2022-08-03T08:04:02.803Z,99408.78
2022-08-03T08:06:29.810Z,99407.69
2022-08-03T08:09:01.731Z,99405.28
2022-08-03T08:11:28.490Z,99398.59
2022-08-03T08:13:55.276Z,99403.66
2022-08-03T08:16:22.034Z,99407.00
2022-08-03T08:18:48.800Z,99394.53
2022-08-03T08:21:15.593Z,99399.97
2022-08-03T08:23:46.227Z,99412.41
2022-08-03T08:26:17.331Z,99407.91
2022-08-03T08:28:44.230Z,99395.03
2022-08-03T08:31:11.042Z,99407.28
2022-08-03T08:34:02.676Z,99400.28
2022-08-03T08:36:24.685Z,99417.28
2022-08-03T08:38:51.520Z,99416.53
2022-08-03T08:41:18.356Z,99413.19
2022-08-03T08:43:45.081Z,99415.13
2022-08-03T08:46:13.114Z,99409.50
2022-08-03T08:48:52.071Z,99417.44
2022-08-03T08:51:20.702Z,99418.88
2022-08-03T08:53:51.488Z,99424.44
2022-08-03T08:56:19.956Z,99430.00
2022-08-03T08:58:51.798Z,99426.84
2022-08-03T09:01:19.525Z,99430.03
2022-08-03T09:03:47.738Z,99435.56
2022-08-03T09:06:15.183Z,99436.22
2022-08-03T09:08:42.030Z,99434.41
2022-08-03T09:11:09.599Z,99439.75
2022-08-03T09:13:39.285Z,99436.75
2022-08-03T09:16:20.311Z,99426.84
2022-08-03T09:18:53.145Z,99424.75
2022-08-03T09:21:32.931Z,99425.38
2022-08-03T09:24:04.795Z,99425.94
2022-08-03T09:26:34.298Z,99415.03
2022-08-03T09:32:03.020Z,99409.59
2022-08-03T09:34:30.721Z,99419.06
2022-08-03T09:37:00.706Z,99424.91
2022-08-03T09:39:42.184Z,99419.63
2022-08-03T09:42:15.070Z,99422.19
2022-08-03T09:44:44.673Z,99421.63
2022-08-03T09:47:13.265Z,99435.28
2022-08-03T09:49:42.087Z,99428.84
2022-08-03T09:52:32.222Z,99421.25
2022-08-03T09:55:02.910Z,99417.41
2022-08-03T09:57:31.148Z,99423.47
2022-08-03T10:00:12.723Z,99408.41
2022-08-03T10:02:41.651Z,99417.50
2022-08-03T10:05:10.580Z,99406.13
2022-08-03T10:07:46.032Z,99405.53
2022-08-03T10:10:28.891Z,99409.63
2022-08-03T10:13:00.371Z,99406.00
2022-08-03T10:16:22.448Z,99413.47
2022-08-03T10:18:14.741Z,99399.22
2022-08-03T10:20:50.023Z,99411.59
2022-08-03T10:23:18.287Z,99409.78
2022-08-03T10:25:48.496Z,99407.03
2022-08-03T10:28:18.451Z,99413.13
2022-08-03T10:30:49.293Z,99408.47
2022-08-03T10:33:51.416Z,99430.53
2022-08-03T10:36:13.898Z,99424.88
2022-08-03T10:38:49.665Z,99415.34
2022-08-03T10:41:20.641Z,99417.44
2022-08-03T10:43:59.165Z,99416.28
2022-08-03T10:46:27.419Z,99413.38
2022-08-03T10:48:56.680Z,99419.94
2022-08-03T10:51:24.246Z,99406.41
2022-08-03T10:53:54.658Z,99414.66
2022-08-03T10:56:54.401Z,99410.19
2022-08-03T10:59:59.472Z,99400.94
2022-08-03T11:03:06.225Z,99401.28
2022-08-03T11:05:53.653Z,99408.34
2022-08-03T11:08:24.439Z,99429.31
2022-08-03T11:10:53.860Z,99419.13
2022-08-03T11:13:22.968Z,99437.22
2022-08-03T11:15:52.965Z,99455.31
2022-08-03T11:18:27.424Z,99447.19
2022-08-03T11:20:59.440Z,99453.81
2022-08-03T11:24:03.338Z,99437.75
2022-08-03T11:26:33.798Z,99436.78
2022-08-03T11:29:29.628Z,99425.63
2022-08-03T11:31:56.752Z,99425.72
2022-08-03T11:34:24.684Z,99431.31
2022-08-03T11:37:30.178Z,99438.81
2022-08-03T11:39:59.765Z,99445.97
2022-08-03T11:42:27.185Z,99436.00
2022-08-03T11:44:55.971Z,99429.31
2022-08-03T11:47:24.462Z,99435.59
2022-08-03T11:49:53.992Z,99433.00
2022-08-03T11:52:26.940Z,99436.38
2022-08-03T11:54:57.197Z,99442.06
2022-08-03T11:59:18.874Z,99448.44
2022-08-03T12:00:32.761Z,99457.47
2022-08-03T12:03:03.834Z,99449.69
2022-08-03T12:05:35.610Z,99435.66
2022-08-03T12:08:06.449Z,99433.94
2022-08-03T12:10:34.582Z,99427.56
2022-08-03T12:13:05.921Z,99417.28
2022-08-03T12:15:59.184Z,99403.25
2022-08-03T12:18:26.231Z,99408.72
2022-08-03T12:21:03.348Z,99407.69
2022-08-03T12:23:30.879Z,99407.84
2022-08-03T12:26:08.081Z,99407.69
2022-08-03T12:28:37.930Z,99411.25
2022-08-03T12:31:07.674Z,99418.31
2022-08-03T12:33:59.217Z,99419.69
2022-08-03T12:36:28.860Z,99425.44
2022-08-03T12:38:59.117Z,99420.09
2022-08-03T12:41:40.777Z,99416.94
2022-08-03T12:44:09.601Z,99415.38
2022-08-03T12:46:46.946Z,99412.06
2022-08-03T12:49:17.363Z,99413.56
2022-08-03T12:51:44.180Z,99412.97
2022-08-03T12:54:32.630Z,99408.28
2022-08-03T12:56:59.838Z,99406.22
2022-08-03T12:59:32.337Z,99395.69
2022-08-03T13:02:16.462Z,99397.63
2022-08-03T13:04:50.080Z,99387.97
2022-08-03T13:07:18.508Z,99393.41
2022-08-03T13:09:47.639Z,99390.91
2022-08-03T13:12:22.742Z,99410.13
2022-08-03T13:14:55.738Z,99399.97
2022-08-03T13:17:22.850Z,99405.84
2022-08-03T13:19:51.346Z,99405.91
2022-08-03T13:22:24.371Z,99402.25
2022-08-03T13:24:55.875Z,99403.63
2022-08-03T13:28:04.198Z,99412.56
2022-08-03T13:30:10.403Z,99412.41
2022-08-03T13:32:37.461Z,99422.16
2022-08-03T13:35:05.525Z,99422.53
2022-08-03T13:37:32.623Z,99425.41
2022-08-03T13:40:02.522Z,99422.56
2022-08-03T13:42:31.848Z,99432.78
2022-08-03T13:44:59.961Z,99430.16
2022-08-03T13:47:27.719Z,99433.19
2022-08-03T13:50:01.510Z,99456.53
2022-08-03T13:52:33.849Z,99435.41
2022-08-03T13:55:01.891Z,99451.47
2022-08-03T13:58:02.554Z,99463.91
2022-08-03T14:00:27.497Z,99456.44
2022-08-03T14:03:02.996Z,99459.00
2022-08-03T14:05:33.473Z,99447.19
2022-08-03T14:08:04.897Z,99445.94
2022-08-03T14:10:33.905Z,99445.31
2022-08-03T14:13:00.816Z,99446.28
2022-08-03T14:15:28.837Z,99442.09
2022-08-03T14:17:58.552Z,99443.00
2022-08-03T14:20:37.850Z,99438.53
2022-08-03T14:23:14.351Z,99437.72
2022-08-03T14:25:44.416Z,99433.97
2022-08-03T14:28:18.468Z,99443.97
2022-08-03T14:30:46.233Z,99446.50
2022-08-03T14:33:13.184Z,99451.69
2022-08-03T14:35:40.264Z,99451.84
2022-08-03T14:38:07.172Z,99455.47
2022-08-03T14:40:34.102Z,99452.44
2022-08-03T14:43:01.007Z,99447.84
2022-08-03T14:45:27.875Z,99445.31
2022-08-03T14:50:10.426Z,99445.16
2022-08-03T14:50:51.042Z,99450.13
2022-08-03T14:53:19.606Z,99447.63
2022-08-03T14:55:50.878Z,99447.47
2022-08-03T14:58:22.992Z,99444.13
2022-08-03T15:00:51.748Z,99443.06
2022-08-03T15:03:23.136Z,99466.63
2022-08-03T15:05:55.557Z,99476.44
2022-08-03T15:08:23.409Z,99500.97
2022-08-03T15:10:50.671Z,99483.84
2022-08-03T15:13:18.287Z,99472.84
2022-08-03T15:15:45.493Z,99473.38
2022-08-03T15:18:12.444Z,99483.53
2022-08-03T15:20:44.998Z,99498.13
2022-08-03T15:23:13.990Z,99496.66
2022-08-03T15:26:28.462Z,99490.25
2022-08-03T15:28:27.920Z,99495.97
2022-08-03T15:33:50.762Z,99503.38
2022-08-03T15:36:21.547Z,99517.44
2022-08-03T15:38:48.601Z,99514.66
2022-08-03T15:41:15.647Z,99509.41
2022-08-03T15:43:42.609Z,99512.63
2022-08-03T15:46:30.407Z,99526.63
2022-08-03T15:48:57.133Z,99523.88
2022-08-03T15:51:24.044Z,99523.47
2022-08-03T15:53:50.902Z,99508.31
2022-08-03T15:56:18.843Z,99517.16
2022-08-03T15:59:10.065Z,99506.16
2022-08-03T16:01:32.924Z,99508.19
2022-08-03T16:03:59.964Z,99514.94
2022-08-03T16:06:35.032Z,99522.22
2022-08-03T16:09:05.610Z,99514.63
2022-08-03T16:11:51.410Z,99523.16
2022-08-03T16:14:33.537Z,99521.94
2022-08-03T16:17:05.170Z,99521.88
2022-08-03T16:19:32.000Z,99521.09
2022-08-03T16:21:59.425Z,99531.19
2022-08-03T16:24:28.214Z,99520.91
2022-08-03T16:26:55.953Z,99523.81
2022-08-03T16:29:23.571Z,99512.88
2022-08-03T16:31:51.556Z,99514.44
2022-08-03T16:34:18.995Z,99518.72
2022-08-03T16:36:45.978Z,99525.72
2022-08-03T16:39:12.918Z,99523.59
2022-08-03T16:41:53.909Z,99523.34
2022-08-03T16:44:27.031Z,99528.47
2022-08-03T16:46:55.293Z,99533.03
2022-08-03T16:49:53.763Z,99540.84
2022-08-03T16:52:09.241Z,99551.50
2022-08-03T16:54:39.913Z,99553.78
2022-08-03T16:57:07.554Z,99558.91
2022-08-03T16:59:36.708Z,99561.13
2022-08-03T17:02:09.702Z,99565.09
2022-08-03T17:04:36.990Z,99576.28
2022-08-03T17:07:18.686Z,99585.63
2022-08-03T17:09:47.861Z,99587.78
2022-08-03T17:12:16.781Z,99591.75
2022-08-03T17:14:45.000Z,99591.16
2022-08-03T17:17:47.654Z,99591.47
2022-08-03T17:20:21.773Z,99576.72
2022-08-03T17:23:03.232Z,99591.56
2022-08-03T17:25:39.759Z,99604.31
2022-08-03T17:28:48.490Z,99603.63
2022-08-03T17:31:23.496Z,99600.50
2022-08-03T17:34:01.669Z,99591.81
2022-08-03T17:37:01.661Z,99585.44
2022-08-03T17:39:23.547Z,99578.06
2022-08-03T17:42:00.844Z,99581.28
2022-08-03T17:44:41.453Z,99587.06
2022-08-03T17:47:11.077Z,99585.63
2022-08-03T17:49:40.048Z,99579.69
2022-08-03T17:52:41.510Z,99582.63
2022-08-03T17:55:57.871Z,99590.28
2022-08-03T17:58:17.583Z,99590.53
2022-08-03T18:02:00.351Z,99598.75
2022-08-03T18:03:59.259Z,99592.19
2022-08-03T18:06:31.284Z,99592.31
2022-08-03T18:09:04.664Z,99601.53
2022-08-03T18:15:00.676Z,99603.88
2022-08-03T18:17:55.001Z,99606.13
2022-08-03T18:20:31.282Z,99595.75
2022-08-03T18:23:04.814Z,99604.22
2022-08-03T18:25:56.132Z,99605.50
2022-08-03T18:28:27.027Z,99594.28
2022-08-03T18:30:55.284Z,99588.31
2022-08-03T18:34:19.856Z,99590.53
2022-08-03T18:36:21.755Z,99586.56
2022-08-03T18:38:53.879Z,99581.56
2022-08-03T18:41:33.311Z,99581.84
2022-08-03T18:44:08.349Z,99583.94
2022-08-03T18:50:21.343Z,99576.75
2022-08-03T18:53:02.781Z,99566.41
2022-08-03T18:55:35.814Z,99568.63
2022-08-03T18:58:18.206Z,99575.34
2022-08-03T19:01:15.255Z,99577.72
2022-08-03T19:03:58.489Z,99581.03
2022-08-03T19:06:29.834Z,99583.13
2022-08-03T19:09:09.490Z,99585.22
2022-08-03T19:12:13.274Z,99588.28
2022-08-03T19:14:41.696Z,99593.19
2022-08-03T19:17:11.369Z,99593.69
2022-08-03T19:19:44.554Z,99590.19
2022-08-03T19:22:16.040Z,99594.06
2022-08-03T19:24:45.650Z,99599.44
2022-08-03T19:27:15.881Z,99594.19
2022-08-03T19:29:59.387Z,99589.97
2022-08-03T19:32:32.255Z,99589.22
2022-08-03T19:35:01.953Z,99596.53
2022-08-03T19:37:38.263Z,99586.78
2022-08-03T19:40:10.236Z,99585.94
2022-08-03T19:42:44.636Z,99582.41
2022-08-03T19:45:15.626Z,99591.44
2022-08-03T19:47:52.542Z,99583.63
2022-08-03T19:50:20.656Z,99593.63
2022-08-03T19:52:49.730Z,99590.97
2022-08-03T19:55:17.915Z,99594.47
2022-08-03T19:57:49.150Z,99589.25
2022-08-03T20:00:19.978Z,99594.59
2022-08-03T20:02:53.222Z,99592.91
2022-08-03T20:05:20.530Z,99591.91
2022-08-03T20:07:48.047Z,99592.91
2022-08-03T20:10:17.644Z,99592.91
2022-08-03T20:12:46.382Z,99585.84
2022-08-03T20:15:14.023Z,99600.09
2022-08-03T20:17:55.416Z,99599.97
2022-08-03T20:20:37.333Z,99603.66
2022-08-03T20:23:11.493Z,99599.25
2022-08-03T20:25:55.692Z,99603.53
2022-08-03T20:28:50.180Z,99593.75
2022-08-03T20:31:20.806Z,99596.56
2022-08-03T20:33:49.618Z,99599.00
2022-08-03T20:36:18.572Z,99603.00
2022-08-03T20:38:47.856Z,99601.19
2022-08-03T20:41:18.716Z,99601.19
2022-08-03T20:43:49.292Z,99599.47
2022-08-03T20:46:32.639Z,99606.69
2022-08-03T20:49:06.702Z,99605.94
2022-08-03T20:51:48.941Z,99607.06
2022-08-03T20:54:22.768Z,99603.91
2022-08-03T20:56:58.098Z,99606.94
2022-08-03T20:59:35.063Z,99603.75
2022-08-03T21:02:05.570Z,99598.66
2022-08-03T21:04:32.424Z,99602.53
2022-08-03T21:07:03.744Z,99604.50
2022-08-03T21:09:56.051Z,99605.59
2022-08-03T21:12:33.919Z,99596.81
2022-08-03T21:13:00.462Z,99580.78
2022-08-03T21:13:04.918Z,99592.00
2022-08-03T21:15:06.145Z,99601.47
2022-08-03T21:17:40.974Z,99596.22
2022-08-03T21:20:10.826Z,99597.06
2022-08-03T21:22:39.241Z,99595.34
2022-08-03T21:25:09.353Z,99590.97
2022-08-03T21:27:37.289Z,99595.34
2022-08-03T21:30:09.959Z,99605.94
2022-08-03T21:32:40.347Z,99607.78
2022-08-03T21:35:10.713Z,99602.53
2022-08-03T21:37:42.112Z,99606.69
2022-08-03T21:40:13.272Z,99600.34
2022-08-03T21:42:41.539Z,99612.53
2022-08-03T21:45:16.887Z,99603.50
2022-08-03T21:47:45.316Z,99608.63
2022-08-03T21:50:13.618Z,99602.03
2022-08-03T21:52:43.604Z,99614.13
2022-08-03T21:55:20.591Z,99616.69
2022-08-03T21:57:53.196Z,99612.06
2022-08-03T22:00:23.200Z,99618.16
2022-08-03T22:02:57.237Z,99604.75
2022-08-03T22:05:42.574Z,99605.47
2022-08-03T22:08:14.886Z,99605.47
2022-08-03T22:10:45.087Z,99609.03
2022-08-03T22:13:14.408Z,99613.38
2022-08-03T22:15:42.094Z,99607.06
2022-08-03T22:18:09.465Z,99610.47
2022-08-03T22:20:37.806Z,99604.13
2022-08-03T22:23:06.918Z,99601.19
2022-08-03T22:25:36.708Z,99604.72
2022-08-03T22:28:10.414Z,99607.16
2022-08-03T22:30:38.876Z,99590.09
2022-08-03T22:33:11.509Z,99595.19
2022-08-03T22:35:47.791Z,99584.47
2022-08-03T22:38:17.578Z,99588.00
2022-08-03T22:40:47.083Z,99587.88
2022-08-03T22:43:14.445Z,99586.03
2022-08-03T22:46:09.463Z,99585.19
2022-08-03T22:48:34.463Z,99585.56
2022-08-03T22:51:02.775Z,99580.44
2022-08-03T22:53:30.137Z,99584.22
2022-08-03T22:55:59.087Z,99582.53
2022-08-03T22:58:25.905Z,99581.78
2022-08-03T23:00:56.431Z,99577.66
2022-08-03T23:04:00.805Z,99578.63
2022-08-03T23:06:21.646Z,99578.75
2022-08-03T23:08:50.321Z,99584.75
2022-08-03T23:11:18.818Z,99585.34
2022-08-03T23:13:52.328Z,99585.69
2022-08-03T23:16:29.625Z,99592.22
2022-08-03T23:18:59.545Z,99597.09
2022-08-03T23:21:53.822Z,99588.69
2022-08-03T23:24:26.083Z,99593.53
2022-08-03T23:26:58.167Z,99595.72
2022-08-03T23:29:26.623Z,99584.72
2022-08-03T23:31:54.339Z,99589.59
2022-08-03T23:34:41.947Z,99587.50
2022-08-03T23:37:09.542Z,99589.91
2022-08-03T23:39:38.088Z,99594.03
2022-08-03T23:42:06.095Z,99592.09
2022-08-03T23:44:36.776Z,99593.53
2022-08-03T23:47:03.866Z,99593.38
2022-08-03T23:49:30.837Z,99596.78
2022-08-03T23:52:14.678Z,99603.03
2022-08-03T23:54:41.512Z,99602.91
2022-08-03T23:57:17.319Z,99596.41
